createdAt,value
2022-09-15T00:01:00.946Z,61.04
2022-09-15T00:03:28.969Z,61.11
2022-09-15T00:05:56.232Z,61.20
2022-09-15T00:08:24.348Z,60.96
2022-09-15T00:10:54.255Z,61.18
2022-09-15T00:13:22.116Z,60.84
2022-09-15T00:15:48.773Z,60.82
2022-09-15T00:18:15.985Z,60.44
2022-09-15T00:20:45.557Z,60.70
2022-09-15T00:23:14.228Z,60.92
2022-09-15T00:25:45.757Z,60.88
2022-09-15T00:28:13.513Z,61.14
2022-09-15T00:30:42.155Z,61.34
2022-09-15T00:33:08.957Z,61.38
2022-09-15T00:35:39.525Z,61.41
2022-09-15T00:38:09.130Z,61.85
2022-09-15T00:40:43.870Z,61.68
2022-09-15T00:43:12.071Z,61.96
2022-09-15T00:45:39.061Z,61.89
2022-09-15T00:48:08.170Z,61.91
2022-09-15T00:50:36.066Z,61.69
2022-09-15T00:53:05.898Z,61.59
2022-09-15T00:55:37.469Z,61.48
2022-09-15T00:58:06.858Z,61.39
2022-09-15T01:00:34.465Z,61.35
2022-09-15T01:03:02.145Z,61.27
2022-09-15T01:05:33.001Z,61.20
2022-09-15T01:08:03.125Z,61.30
2022-09-15T01:10:35.775Z,61.42
2022-09-15T01:13:05.521Z,61.64
2022-09-15T01:15:40.006Z,61.58
2022-09-15T01:18:15.513Z,61.88
2022-09-15T01:21:02.585Z,61.12
2022-09-15T01:24:00.301Z,61.00
2022-09-15T01:27:00.319Z,60.72
2022-09-15T01:29:55.462Z,60.45
2022-09-15T01:32:47.800Z,60.47
2022-09-15T01:35:27.667Z,60.46
2022-09-15T01:37:58.883Z,60.44
2022-09-15T01:40:32.288Z,59.83
2022-09-15T01:43:01.429Z,59.85
2022-09-15T01:45:32.837Z,59.77
2022-09-15T01:48:03.704Z,59.71
2022-09-15T01:50:34.226Z,59.51
2022-09-15T01:53:04.177Z,59.40
2022-09-15T01:55:37.995Z,59.17
2022-09-15T01:58:05.142Z,58.87
2022-09-15T02:00:36.993Z,58.92
2022-09-15T02:03:11.778Z,58.66
2022-09-15T02:05:42.175Z,58.59
2022-09-15T02:08:25.103Z,58.41
2022-09-15T02:11:01.930Z,58.35
2022-09-15T02:13:38.105Z,58.47
2022-09-15T02:16:15.898Z,58.48
2022-09-15T02:18:48.659Z,58.48
2022-09-15T02:21:22.594Z,58.31
2022-09-15T02:23:54.922Z,58.00
2022-09-15T02:26:24.784Z,58.11
2022-09-15T02:28:54.239Z,58.04
2022-09-15T02:31:25.433Z,57.86
2022-09-15T02:33:57.975Z,57.66
2022-09-15T02:36:28.921Z,57.41
2022-09-15T02:39:02.212Z,57.71
2022-09-15T02:41:28.997Z,57.56
2022-09-15T02:43:55.754Z,57.76
2022-09-15T02:46:24.527Z,57.73
2022-09-15T02:48:51.175Z,57.43
2022-09-15T02:51:18.503Z,57.61
2022-09-15T02:53:46.355Z,57.78
2022-09-15T02:56:13.692Z,57.70
2022-09-15T02:58:40.657Z,57.68
2022-09-15T03:01:08.658Z,57.70
2022-09-15T03:03:39.920Z,57.65
2022-09-15T03:06:19.798Z,57.80
2022-09-15T03:08:48.861Z,57.69
2022-09-15T03:11:16.106Z,57.41
2022-09-15T03:13:43.061Z,57.42
2022-09-15T03:16:11.899Z,57.49
2022-09-15T03:18:40.217Z,57.22
2022-09-15T03:21:08.062Z,57.51
2022-09-15T03:23:36.013Z,57.36
2022-09-15T03:26:03.474Z,57.22
2022-09-15T03:28:30.231Z,57.34
2022-09-15T03:30:57.010Z,57.06
2022-09-15T03:33:24.411Z,57.05
2022-09-15T03:35:52.857Z,57.07
2022-09-15T03:38:19.940Z,57.06
2022-09-15T03:40:57.582Z,57.06
2022-09-15T03:43:24.725Z,57.23
2022-09-15T03:45:51.398Z,57.20
2022-09-15T03:48:18.130Z,57.29
2022-09-15T03:50:44.745Z,57.21
2022-09-15T03:53:12.885Z,57.29
2022-09-15T03:55:39.551Z,57.27
2022-09-15T03:58:06.318Z,57.33
2022-09-15T04:00:32.951Z,57.63
2022-09-15T04:02:59.947Z,57.83
2022-09-15T04:05:26.535Z,57.83
2022-09-15T04:07:53.081Z,57.76
2022-09-15T04:10:24.338Z,58.14
2022-09-15T04:12:51.430Z,58.06
2022-09-15T04:15:18.943Z,58.48
2022-09-15T04:17:45.698Z,58.28
2022-09-15T04:20:12.871Z,58.24
2022-09-15T04:22:39.461Z,58.21
2022-09-15T04:25:07.214Z,58.52
2022-09-15T04:27:36.314Z,58.27
2022-09-15T04:30:03.623Z,58.41
2022-09-15T04:32:30.251Z,58.36
2022-09-15T04:34:56.961Z,58.51
2022-09-15T04:37:23.577Z,58.82
2022-09-15T04:39:50.792Z,58.65
2022-09-15T04:42:17.495Z,58.60
2022-09-15T04:44:45.504Z,58.78
2022-09-15T04:47:12.179Z,59.01
2022-09-15T04:49:39.125Z,58.98
2022-09-15T04:52:09.594Z,59.12
2022-09-15T04:54:36.806Z,59.22
2022-09-15T04:57:03.796Z,59.33
2022-09-15T04:59:30.411Z,59.46
2022-09-15T05:01:58.739Z,59.35
2022-09-15T05:04:25.713Z,59.33
2022-09-15T05:06:52.682Z,59.51
2022-09-15T05:09:19.292Z,59.28
2022-09-15T05:11:45.947Z,59.38
2022-09-15T05:14:12.755Z,59.21
2022-09-15T05:16:40.214Z,59.08
2022-09-15T05:19:10.316Z,58.71
2022-09-15T05:21:37.057Z,59.38
2022-09-15T05:24:03.807Z,59.45
2022-09-15T05:26:30.713Z,59.38
2022-09-15T05:28:57.851Z,59.37
2022-09-15T05:31:27.248Z,59.15
2022-09-15T05:33:54.319Z,59.28
2022-09-15T05:36:25.031Z,59.39
2022-09-15T05:38:52.336Z,59.22
2022-09-15T05:41:19.684Z,59.21
2022-09-15T05:43:47.909Z,59.07
2022-09-15T05:46:16.031Z,58.93
2022-09-15T05:48:42.795Z,59.00
2022-09-15T05:51:09.784Z,59.13
2022-09-15T05:53:38.352Z,59.47
2022-09-15T05:56:07.186Z,59.37
2022-09-15T05:58:34.020Z,59.23
2022-09-15T06:01:05.532Z,59.84
2022-09-15T06:03:32.497Z,60.19
2022-09-15T06:06:00.057Z,60.55
2022-09-15T06:08:31.070Z,60.53
2022-09-15T06:11:03.468Z,60.38
2022-09-15T06:13:30.269Z,60.50
2022-09-15T06:16:01.199Z,60.48
2022-09-15T06:18:27.836Z,60.57
2022-09-15T06:20:54.389Z,60.73
2022-09-15T06:23:21.013Z,60.80
2022-09-15T06:25:47.627Z,60.71
2022-09-15T06:28:15.716Z,60.66
2022-09-15T06:30:42.928Z,60.66
2022-09-15T06:33:09.708Z,60.37
2022-09-15T06:35:36.321Z,59.75
2022-09-15T06:38:03.108Z,59.73
2022-09-15T06:40:30.573Z,59.79
2022-09-15T06:42:57.263Z,59.64
2022-09-15T06:45:25.205Z,59.06
2022-09-15T06:48:13.378Z,59.09
2022-09-15T06:50:38.550Z,59.18
2022-09-15T06:53:05.192Z,59.19
2022-09-15T06:55:31.902Z,58.51
2022-09-15T06:57:59.052Z,58.37
2022-09-15T07:00:28.633Z,58.49
2022-09-15T07:02:55.482Z,58.14
2022-09-15T07:05:22.283Z,57.94
2022-09-15T07:07:48.926Z,58.10
2022-09-15T07:10:15.838Z,58.12
2022-09-15T07:12:42.600Z,58.17
2022-09-15T07:15:10.711Z,57.68
2022-09-15T07:17:39.728Z,57.63
2022-09-15T07:20:06.840Z,57.19
2022-09-15T07:22:33.658Z,57.16
2022-09-15T07:25:00.282Z,57.19
2022-09-15T07:27:31.632Z,56.88
2022-09-15T07:29:58.981Z,57.16
2022-09-15T07:32:25.820Z,55.68
2022-09-15T07:34:58.364Z,55.86
2022-09-15T07:37:25.334Z,55.48
2022-09-15T07:39:52.113Z,54.56
2022-09-15T07:42:18.796Z,54.11
2022-09-15T07:44:45.649Z,53.99
2022-09-15T07:47:12.253Z,54.04
2022-09-15T07:49:39.045Z,53.59
2022-09-15T07:52:07.027Z,52.21
2022-09-15T07:54:33.739Z,52.11
2022-09-15T07:57:00.321Z,51.66
2022-09-15T07:59:26.994Z,51.05
2022-09-15T08:01:54.241Z,51.54
2022-09-15T08:04:20.998Z,51.38
2022-09-15T08:06:47.699Z,51.26
2022-09-15T08:09:17.647Z,51.39
2022-09-15T08:11:44.341Z,51.32
2022-09-15T08:14:10.986Z,51.46
2022-09-15T08:16:38.593Z,51.59
2022-09-15T08:19:05.386Z,51.75
2022-09-15T08:21:32.072Z,51.08
2022-09-15T08:23:59.723Z,51.55
2022-09-15T08:26:29.330Z,52.00
2022-09-15T08:28:56.150Z,52.15
2022-09-15T08:31:24.490Z,51.99
2022-09-15T08:33:54.333Z,51.50
2022-09-15T08:36:22.366Z,51.74
2022-09-15T08:38:51.685Z,51.53
2022-09-15T08:41:24.707Z,51.88
2022-09-15T08:43:58.197Z,51.91
2022-09-15T08:46:34.383Z,51.96
2022-09-15T08:49:07.933Z,52.30
2022-09-15T08:51:42.591Z,52.44
2022-09-15T08:54:16.657Z,51.96
2022-09-15T08:56:43.875Z,51.85
2022-09-15T08:59:15.158Z,52.07
2022-09-15T09:01:53.106Z,51.87
2022-09-15T09:04:41.517Z,51.66
2022-09-15T09:07:21.710Z,51.05
2022-09-15T09:09:56.418Z,50.85
2022-09-15T09:12:51.958Z,50.60
2022-09-15T09:15:32.775Z,50.48
2022-09-15T09:18:17.863Z,50.21
2022-09-15T09:20:55.230Z,49.78
2022-09-15T09:23:26.879Z,49.58
2022-09-15T09:25:56.236Z,48.54
2022-09-15T09:28:31.984Z,48.00
2022-09-15T09:31:07.259Z,47.95
2022-09-15T09:33:46.794Z,47.83
2022-09-15T09:36:14.983Z,47.79
2022-09-15T09:38:45.246Z,47.05
2022-09-15T09:41:15.267Z,47.51
2022-09-15T09:43:43.132Z,48.02
2022-09-15T09:46:16.152Z,48.31
2022-09-15T09:48:48.622Z,48.30
2022-09-15T09:51:31.255Z,48.35
2022-09-15T09:54:04.317Z,48.58
2022-09-15T09:56:31.033Z,48.87
2022-09-15T09:58:57.763Z,49.35
2022-09-15T10:01:27.213Z,49.73
2022-09-15T10:04:12.631Z,50.12
2022-09-15T10:06:40.445Z,50.56
2022-09-15T10:09:14.667Z,50.82
2022-09-15T10:11:44.086Z,51.26
2022-09-15T10:14:20.550Z,51.22
2022-09-15T10:17:02.761Z,51.38
2022-09-15T10:19:32.688Z,51.49
2022-09-15T10:22:00.944Z,51.57
2022-09-15T10:24:34.153Z,51.62
2022-09-15T10:27:19.215Z,51.63
2022-09-15T10:29:46.785Z,52.06
2022-09-15T10:32:25.478Z,52.10
2022-09-15T10:35:00.460Z,52.14
2022-09-15T10:37:31.847Z,52.14
2022-09-15T10:40:01.456Z,52.18
2022-09-15T10:42:46.290Z,51.81
2022-09-15T10:45:26.204Z,51.96
2022-09-15T10:48:09.887Z,51.73
2022-09-15T10:50:47.577Z,51.22
2022-09-15T10:53:23.583Z,50.94
2022-09-15T10:55:59.540Z,50.84
2022-09-15T10:58:56.776Z,51.01
2022-09-15T11:01:39.299Z,50.90
2022-09-15T11:04:30.817Z,50.80
2022-09-15T11:07:07.146Z,50.83
2022-09-15T11:09:38.707Z,51.10
2022-09-15T11:12:25.910Z,50.40
2022-09-15T11:15:12.183Z,50.43
2022-09-15T11:17:56.534Z,50.83
2022-09-15T11:20:53.774Z,50.18
2022-09-15T11:23:25.718Z,50.81
2022-09-15T11:25:58.611Z,50.97
2022-09-15T11:28:30.537Z,50.78
2022-09-15T11:31:02.580Z,50.49
2022-09-15T11:33:34.671Z,50.38
2022-09-15T11:36:07.533Z,50.32
2022-09-15T11:38:42.749Z,50.18
2022-09-15T11:41:17.937Z,50.47
2022-09-15T11:43:54.129Z,50.63
2022-09-15T11:46:28.418Z,50.53
2022-09-15T11:49:02.060Z,50.23
2022-09-15T11:51:37.918Z,50.18
2022-09-15T11:54:10.952Z,50.05
2022-09-15T11:56:42.338Z,49.77
2022-09-15T11:59:19.789Z,50.18
2022-09-15T12:01:52.238Z,49.84
2022-09-15T12:04:26.913Z,49.84
2022-09-15T12:07:03.137Z,49.99
2022-09-15T12:09:30.031Z,50.32
2022-09-15T12:12:01.872Z,49.91
2022-09-15T12:14:32.809Z,49.84
2022-09-15T12:17:00.220Z,49.48
2022-09-15T12:19:44.060Z,49.70
2022-09-15T12:22:21.903Z,49.38
2022-09-15T12:24:58.850Z,49.75
2022-09-15T12:27:28.456Z,49.68
2022-09-15T12:29:56.491Z,49.33
2022-09-15T12:32:26.688Z,48.98
2022-09-15T12:35:07.912Z,48.83
2022-09-15T12:37:47.204Z,48.93
2022-09-15T12:40:38.031Z,49.19
2022-09-15T12:43:22.850Z,49.09
2022-09-15T12:45:57.638Z,48.80
2022-09-15T12:48:29.225Z,48.37
2022-09-15T12:50:59.952Z,48.62
2022-09-15T12:53:31.305Z,48.64
2022-09-15T12:56:03.792Z,49.14
2022-09-15T12:58:35.170Z,49.07
2022-09-15T13:01:30.795Z,49.13
2022-09-15T13:04:49.565Z,48.71
2022-09-15T13:07:47.001Z,48.60
2022-09-15T13:10:36.331Z,48.86
2022-09-15T13:13:10.880Z,48.89
2022-09-15T13:15:44.860Z,49.11
2022-09-15T13:18:13.457Z,48.69
2022-09-15T13:20:48.599Z,49.04
2022-09-15T13:23:16.674Z,48.58
2022-09-15T13:25:46.595Z,48.47
2022-09-15T13:30:57.285Z,48.87
2022-09-15T13:39:43.567Z,48.70
2022-09-15T13:42:28.859Z,48.32
2022-09-15T13:45:40.863Z,48.36
2022-09-15T13:48:37.688Z,47.92
2022-09-15T13:51:13.653Z,47.76
2022-09-15T13:53:49.681Z,47.83
2022-09-15T13:56:23.747Z,47.52
2022-09-15T13:58:58.239Z,47.47
2022-09-15T14:01:33.314Z,47.03
2022-09-15T14:04:05.090Z,47.04
2022-09-15T14:06:36.934Z,47.56
2022-09-15T14:09:13.569Z,47.59
2022-09-15T14:11:42.666Z,46.80
2022-09-15T14:14:34.899Z,47.22
2022-09-15T14:17:01.981Z,47.75
2022-09-15T14:19:33.872Z,48.02
2022-09-15T14:24:30.200Z,47.72
2022-09-15T14:27:00.855Z,47.93
2022-09-15T14:29:29.358Z,47.95
2022-09-15T14:32:00.853Z,48.12
2022-09-15T14:34:35.486Z,48.78
2022-09-15T14:37:05.918Z,49.00
2022-09-15T14:39:33.601Z,49.06
2022-09-15T14:42:09.435Z,49.01
2022-09-15T14:47:30.120Z,49.67
2022-09-15T14:50:08.020Z,49.47
2022-09-15T14:52:39.167Z,49.45
2022-09-15T14:55:13.973Z,49.07
2022-09-15T14:57:49.287Z,48.78
2022-09-15T15:00:30.468Z,49.17
2022-09-15T15:03:14.896Z,49.39
2022-09-15T15:08:38.102Z,49.37
2022-09-15T15:11:07.970Z,49.13
2022-09-15T15:13:37.457Z,49.57
2022-09-15T15:16:19.039Z,49.85
2022-09-15T15:18:46.430Z,49.71
2022-09-15T15:21:35.202Z,50.08
2022-09-15T15:24:10.050Z,50.35
2022-09-15T15:26:41.329Z,49.93
2022-09-15T15:29:29.779Z,50.25
2022-09-15T15:32:05.413Z,50.40
2022-09-15T15:34:33.468Z,50.62
2022-09-15T15:37:03.422Z,50.76
2022-09-15T15:39:30.819Z,50.77
2022-09-15T15:42:03.503Z,50.61
2022-09-15T15:44:31.803Z,50.71
2022-09-15T15:47:04.297Z,50.81
2022-09-15T15:49:32.697Z,50.71
2022-09-15T15:52:00.741Z,50.74
2022-09-15T15:54:34.190Z,51.03
2022-09-15T15:57:21.730Z,51.43
2022-09-15T15:59:48.565Z,51.93
2022-09-15T16:02:15.863Z,52.08
2022-09-15T16:04:43.848Z,51.85
2022-09-15T16:07:17.740Z,52.08
2022-09-15T16:09:45.649Z,52.45
2022-09-15T16:12:12.345Z,52.37
2022-09-15T16:14:39.137Z,52.92
2022-09-15T16:17:06.133Z,52.87
2022-09-15T16:19:32.892Z,53.27
2022-09-15T16:22:01.616Z,53.40
2022-09-15T16:24:28.775Z,53.47
2022-09-15T16:26:55.846Z,53.83
2022-09-15T16:29:27.701Z,53.89
2022-09-15T16:31:54.669Z,54.04
2022-09-15T16:34:21.494Z,54.08
2022-09-15T16:36:48.305Z,53.95
2022-09-15T16:39:16.265Z,54.17
2022-09-15T16:41:43.285Z,54.56
2022-09-15T16:44:17.757Z,54.51
2022-09-15T16:46:44.735Z,54.75
2022-09-15T16:49:11.478Z,54.75
2022-09-15T16:51:38.264Z,54.96
2022-09-15T16:54:13.906Z,55.01
2022-09-15T16:56:42.145Z,54.95
2022-09-15T16:59:08.865Z,55.00
2022-09-15T17:01:35.862Z,54.87
2022-09-15T17:04:03.889Z,55.27
2022-09-15T17:06:31.090Z,55.20
2022-09-15T17:08:58.110Z,55.17
2022-09-15T17:11:25.942Z,55.13
2022-09-15T17:13:54.118Z,55.23
2022-09-15T17:16:20.978Z,55.36
2022-09-15T17:18:48.242Z,55.21
2022-09-15T17:21:17.189Z,55.15
2022-09-15T17:23:46.563Z,55.59
2022-09-15T17:26:14.911Z,56.34
2022-09-15T17:28:42.436Z,56.28
2022-09-15T17:31:15.409Z,56.83
2022-09-15T17:33:42.314Z,57.14
2022-09-15T17:36:10.147Z,56.95
2022-09-15T17:38:36.972Z,57.31
2022-09-15T17:41:04.045Z,57.60
2022-09-15T17:43:31.839Z,57.73
2022-09-15T17:45:58.692Z,58.01
2022-09-15T17:48:26.876Z,58.17
2022-09-15T17:50:53.502Z,58.45
2022-09-15T17:53:22.570Z,58.42
2022-09-15T17:55:50.235Z,58.65
2022-09-15T17:58:17.594Z,58.77
2022-09-15T18:00:45.362Z,58.60
2022-09-15T18:03:22.615Z,58.55
2022-09-15T18:05:51.586Z,58.56
2022-09-15T18:08:19.269Z,58.62
2022-09-15T18:10:46.840Z,58.45
2022-09-15T18:13:15.702Z,58.44
2022-09-15T18:15:43.101Z,58.47
2022-09-15T18:18:14.482Z,58.41
2022-09-15T18:20:41.855Z,58.54
2022-09-15T18:23:14.335Z,58.26
2022-09-15T18:25:41.683Z,58.35
2022-09-15T18:28:08.360Z,58.43
2022-09-15T18:30:40.683Z,58.17
2022-09-15T18:33:08.150Z,58.45
2022-09-15T18:35:35.107Z,58.48
2022-09-15T18:38:02.012Z,58.47
2022-09-15T18:40:30.078Z,58.52
2022-09-15T18:42:57.380Z,58.42
2022-09-15T18:45:24.695Z,58.35
2022-09-15T18:47:53.166Z,58.33
2022-09-15T18:50:22.427Z,58.28
2022-09-15T18:52:50.572Z,58.11
2022-09-15T18:55:19.115Z,58.21
2022-09-15T18:57:47.350Z,58.08
2022-09-15T19:00:16.113Z,58.02
2022-09-15T19:02:43.355Z,58.01
2022-09-15T19:05:15.597Z,58.06
2022-09-15T19:07:42.932Z,57.89
2022-09-15T19:10:13.570Z,57.89
2022-09-15T19:12:40.989Z,57.84
2022-09-15T19:15:13.263Z,57.67
2022-09-15T19:17:45.204Z,57.50
2022-09-15T19:20:15.256Z,57.65
2022-09-15T19:22:42.386Z,57.43
2022-09-15T19:25:11.379Z,57.37
2022-09-15T19:27:38.922Z,57.41
2022-09-15T19:30:06.878Z,57.65
2022-09-15T19:32:34.960Z,57.54
2022-09-15T19:35:02.674Z,57.32
2022-09-15T19:37:29.810Z,57.74
2022-09-15T19:39:56.851Z,57.59
2022-09-15T19:42:26.125Z,57.48
2022-09-15T19:44:54.450Z,57.33
2022-09-15T19:47:21.172Z,57.37
2022-09-15T19:49:50.940Z,57.37
2022-09-15T19:52:18.075Z,57.35
2022-09-15T19:54:44.691Z,57.15
2022-09-15T19:57:11.547Z,57.16
2022-09-15T19:59:38.566Z,57.44
2022-09-15T20:02:05.345Z,57.34
2022-09-15T20:04:32.443Z,57.49
2022-09-15T20:07:00.375Z,57.56
2022-09-15T20:09:27.076Z,57.78
2022-09-15T20:11:54.326Z,57.85
2022-09-15T20:14:21.176Z,58.00
2022-09-15T20:16:48.092Z,58.05
2022-09-15T20:19:14.956Z,58.20
2022-09-15T20:21:51.172Z,58.34
2022-09-15T20:24:20.707Z,58.20
2022-09-15T20:26:48.110Z,58.09
2022-09-15T20:29:15.262Z,57.94
2022-09-15T20:31:42.102Z,58.06
2022-09-15T20:34:08.742Z,58.30
2022-09-15T20:36:38.379Z,58.66
2022-09-15T20:39:08.713Z,58.82
2022-09-15T20:41:37.116Z,59.04
2022-09-15T20:44:05.328Z,59.16
2022-09-15T20:46:32.044Z,59.39
2022-09-15T20:48:58.697Z,59.58
2022-09-15T20:51:27.942Z,59.76
2022-09-15T20:53:56.274Z,59.58
2022-09-15T20:56:25.882Z,59.52
2022-09-15T20:58:55.422Z,59.52
2022-09-15T21:01:24.056Z,59.59
2022-09-15T21:03:51.057Z,59.62
2022-09-15T21:06:19.663Z,59.64
2022-09-15T21:08:47.615Z,59.41
2022-09-15T21:11:15.813Z,59.43
2022-09-15T21:13:43.818Z,59.52
2022-09-15T21:16:15.126Z,59.65
2022-09-15T21:18:43.288Z,59.71
2022-09-15T21:21:12.883Z,59.71
2022-09-15T21:23:41.907Z,59.91
2022-09-15T21:26:10.341Z,59.72
2022-09-15T21:28:37.823Z,59.47
2022-09-15T21:31:06.714Z,59.43
2022-09-15T21:33:35.905Z,59.24
2022-09-15T21:36:05.070Z,59.13
2022-09-15T21:38:32.511Z,59.36
2022-09-15T21:40:59.217Z,59.35
2022-09-15T21:43:29.173Z,59.50
2022-09-15T21:45:56.535Z,59.27
2022-09-15T21:48:23.203Z,59.56
2022-09-15T21:50:51.660Z,59.69
2022-09-15T21:53:20.207Z,59.89
2022-09-15T21:55:50.402Z,59.95
2022-09-15T21:58:18.175Z,59.96
2022-09-15T22:00:45.012Z,60.01
2022-09-15T22:03:11.694Z,60.15
2022-09-15T22:05:39.333Z,60.41
2022-09-15T22:08:08.715Z,60.56
2022-09-15T22:10:35.591Z,60.58
2022-09-15T22:13:02.250Z,60.31
2022-09-15T22:15:29.365Z,60.26
2022-09-15T22:17:56.134Z,60.58
2022-09-15T22:20:22.851Z,60.49
2022-09-15T22:22:49.509Z,60.25
2022-09-15T22:25:21.815Z,60.05
2022-09-15T22:27:48.703Z,60.29
2022-09-15T22:30:15.577Z,60.24
2022-09-15T22:32:42.254Z,60.40
2022-09-15T22:35:11.434Z,60.11
2022-09-15T22:37:38.147Z,60.15
2022-09-15T22:40:06.025Z,59.58
2022-09-15T22:42:34.124Z,59.79
2022-09-15T22:45:00.817Z,60.10
2022-09-15T22:47:27.418Z,59.92
2022-09-15T22:49:54.011Z,59.85
2022-09-15T22:52:21.220Z,59.81
2022-09-15T22:54:47.949Z,59.95
2022-09-15T22:57:14.535Z,60.45
2022-09-15T22:59:42.432Z,60.35
2022-09-15T23:02:09.207Z,60.55
2022-09-15T23:04:35.894Z,60.59
2022-09-15T23:07:02.471Z,60.50
2022-09-15T23:09:29.297Z,60.58
2022-09-15T23:11:56.007Z,61.18
2022-09-15T23:14:23.830Z,61.46
2022-09-15T23:16:51.917Z,61.52
2022-09-15T23:19:18.485Z,61.75
2022-09-15T23:21:45.204Z,61.57
2022-09-15T23:24:12.502Z,61.15
2022-09-15T23:26:39.583Z,60.33
2022-09-15T23:29:06.300Z,60.68
2022-09-15T23:31:33.009Z,61.05
2022-09-15T23:34:01.179Z,60.90
2022-09-15T23:36:27.951Z,60.76
2022-09-15T23:38:54.751Z,60.88
2022-09-15T23:41:21.598Z,60.99
2022-09-15T23:43:48.232Z,61.22
2022-09-15T23:46:15.009Z,61.07
2022-09-15T23:48:41.970Z,61.12
2022-09-15T23:51:10.365Z,61.05
2022-09-15T23:53:37.233Z,61.05
2022-09-15T23:56:04.139Z,60.53
2022-09-15T23:58:30.999Z,60.26
